Time;durP1;ratioP1;P1;durP2;ratioP2;P2;SDS_P1;SDS_P2;PMS_P1;PMS_P2;Temp;Humidity;BMP_temperature;BMP_pressure;BME280_temperature;BME280_humidity;BME280_pressure;Samples;Min_cycle;Max_cycle;Signal;HPM_P1;HPM_P2
2021/03/13 00:00:08;;;;;;;1999.90;999.90;;;7.90;99.90;;;;;;4863444;29;20426;-80
2021/03/13 00:02:34;;;;;;;1999.90;999.90;;;7.90;99.90;;;;;;4863448;29;20176;-79
2021/03/13 00:05:00;;;;;;;1999.90;999.90;;;7.90;99.90;;;;;;4861925;29;20195;-80
2021/03/13 00:07:26;;;;;;;1999.90;999.90;;;7.80;99.90;;;;;;4863598;29;20175;-80
2021/03/13 00:09:51;;;;;;;1999.90;999.90;;;7.80;99.90;;;;;;4862912;29;20702;-80
2021/03/13 00:12:17;;;;;;;1999.90;999.90;;;7.70;99.90;;;;;;4863146;29;20171;-80
2021/03/13 00:14:43;;;;;;;1999.90;999.90;;;7.60;99.90;;;;;;4863007;29;20567;-80
2021/03/13 00:17:09;;;;;;;1999.90;999.90;;;7.60;99.90;;;;;;4861623;29;20415;-80
2021/03/13 00:19:35;;;;;;;1999.90;999.90;;;7.60;99.90;;;;;;4862848;29;20160;-80
2021/03/13 00:22:01;;;;;;;1999.90;999.90;;;7.30;99.90;;;;;;4861443;29;20194;-80
2021/03/13 00:24:26;;;;;;;1999.90;999.90;;;7.30;99.90;;;;;;4862876;29;20199;-80
2021/03/13 00:26:52;;;;;;;1999.90;999.90;;;7.20;99.90;;;;;;4861925;29;20179;-80
2021/03/13 00:29:18;;;;;;;1999.90;999.90;;;7.20;99.90;;;;;;4862577;29;20183;-80
2021/03/13 00:31:43;;;;;;;1999.90;999.90;;;7.20;99.90;;;;;;4862690;29;20182;-81
2021/03/13 00:34:09;;;;;;;1999.90;999.90;;;7.20;99.90;;;;;;4863029;29;20286;-81
2021/03/13 00:36:36;;;;;;;1999.90;999.90;;;7.20;99.90;;;;;;4862671;29;20207;-81
2021/03/13 00:39:03;;;;;;;1999.90;999.90;;;7.20;99.90;;;;;;4862570;29;20223;-81
2021/03/13 00:41:29;;;;;;;1999.90;999.90;;;7.20;99.90;;;;;;4862986;29;20532;-81
2021/03/13 00:43:54;;;;;;;1999.90;999.90;;;7.10;99.90;;;;;;4862964;29;20183;-81
2021/03/13 00:46:20;;;;;;;1999.90;999.90;;;7.10;99.90;;;;;;4862617;29;20164;-81
2021/03/13 00:48:45;;;;;;;1999.90;999.90;;;7.20;99.90;;;;;;4862652;29;20336;-81
2021/03/13 00:51:11;;;;;;;1999.90;999.90;;;7.20;99.90;;;;;;4861177;29;20171;-81
2021/03/13 00:53:37;;;;;;;1999.90;999.90;;;7.10;99.90;;;;;;4862930;29;20584;-81
2021/03/13 00:56:02;;;;;;;1999.90;999.90;;;7.10;99.90;;;;;;4862606;29;20270;-81
2021/03/13 00:58:28;;;;;;;1999.90;999.90;;;7.00;99.90;;;;;;4861450;29;20227;-81
2021/03/13 01:00:54;;;;;;;1999.90;999.90;;;6.90;99.90;;;;;;4864516;29;20496;-81
2021/03/13 01:03:19;;;;;;;1999.90;999.90;;;6.90;99.90;;;;;;4866231;29;20191;-81
2021/03/13 01:05:48;;;;;;;1999.90;999.90;;;6.90;99.90;;;;;;4866107;29;20170;-81
2021/03/13 01:08:13;;;;;;;1999.90;999.90;;;6.90;99.90;;;;;;4866115;29;20171;-81
2021/03/13 01:10:39;;;;;;;1999.90;999.90;;;6.90;99.90;;;;;;4865964;29;20171;-80
2021/03/13 01:13:09;;;;;;;1999.90;999.90;;;6.80;99.90;;;;;;4865716;29;20195;-80
2021/03/13 01:15:35;;;;;;;1999.90;999.90;;;6.90;99.90;;;;;;4864643;29;20609;-81
2021/03/13 01:18:01;;;;;;;1999.90;999.90;;;7.00;99.90;;;;;;4866171;29;20250;-81
2021/03/13 01:20:27;;;;;;;1999.90;999.90;;;6.90;99.90;;;;;;4865953;29;20411;-80
2021/03/13 01:22:53;;;;;;;1999.90;999.90;;;6.90;99.90;;;;;;4865717;29;20178;-81
2021/03/13 01:25:19;;;;;;;1999.90;999.90;;;6.90;99.90;;;;;;4864199;29;20455;-81
2021/03/13 01:27:45;;;;;;;1999.90;999.90;;;7.00;99.90;;;;;;4866058;29;20659;-80
2021/03/13 01:30:14;;;;;;;1999.90;999.90;;;7.00;99.90;;;;;;4865637;29;20171;-81
2021/03/13 01:32:40;;;;;;;1999.90;999.90;;;7.10;99.90;;;;;;4865174;29;20206;-81
2021/03/13 01:35:07;;;;;;;1999.90;999.90;;;7.10;99.90;;;;;;4864943;29;20233;-81
2021/03/13 01:37:32;;;;;;;1999.90;999.90;;;7.00;99.90;;;;;;4865815;29;20403;-81
2021/03/13 01:39:58;;;;;;;1999.90;999.90;;;7.00;99.90;;;;;;4865317;29;20168;-81
2021/03/13 01:42:24;;;;;;;1999.90;999.90;;;7.00;99.90;;;;;;4865416;29;20223;-81
2021/03/13 01:44:49;;;;;;;1999.90;999.90;;;7.00;99.90;;;;;;4865374;29;20206;-81
2021/03/13 01:47:27;;;;;;;1999.90;999.90;;;7.00;99.90;;;;;;4865516;29;20187;-81
2021/03/13 01:49:54;;;;;;;1999.90;999.90;;;7.10;99.90;;;;;;4865389;29;20164;-81
2021/03/13 01:52:20;;;;;;;1999.90;999.90;;;7.10;99.90;;;;;;4865103;29;20254;-81
2021/03/13 01:54:47;;;;;;;1999.90;999.90;;;7.10;99.90;;;;;;4865391;29;20607;-81
2021/03/13 01:57:15;;;;;;;1999.90;999.90;;;7.10;99.90;;;;;;4865326;29;20171;-81
2021/03/13 01:59:41;;;;;;;1999.90;999.90;;;7.10;99.90;;;;;;4865076;29;20535;-81
2021/03/13 02:02:11;;;;;;;1999.90;999.90;;;7.10;99.90;;;;;;4865063;29;20163;-81
2021/03/13 02:04:38;;;;;;;1999.90;999.90;;;7.00;99.90;;;;;;4863938;29;20191;-81
2021/03/13 02:07:30;;;;;;;1999.90;999.90;;;7.00;99.90;;;;;;4865057;29;20520;-81
2021/03/13 02:10:00;;;;;;;1999.90;999.90;;;7.00;99.90;;;;;;4865179;29;20286;-80
2021/03/13 02:12:54;;;;;;;1999.90;999.90;;;7.10;99.90;;;;;;4865082;29;20207;-81
2021/03/13 02:15:48;;;;;;;1999.90;999.90;;;7.00;99.90;;;;;;4865069;29;20183;-81
2021/03/13 02:18:36;;;;;;;1999.90;999.90;;;7.00;99.90;;;;;;4846791;29;20183;-81
2021/03/13 02:21:20;;;;;;;1999.90;999.90;;;7.00;99.90;;;;;;4864905;29;20202;-81
2021/03/13 02:24:15;;;;;;;1999.90;999.90;;;7.00;99.90;;;;;;4864750;29;20187;-81
2021/03/13 02:26:56;;;;;;;1999.90;999.90;;;7.00;99.90;;;;;;4864285;29;20183;-81
2021/03/13 02:29:51;;;;;;;1999.90;999.90;;;6.90;99.90;;;;;;4864531;29;20156;-81
2021/03/13 02:32:38;;;;;;;1999.90;999.90;;;6.90;99.90;;;;;;4864287;29;20175;-81
2021/03/13 02:56:50;;;;;;;;;;;;;;;;;;;;;
2021/03/13 03:03:18;;;;;;;1999.90;999.90;;;6.90;99.90;;;;;;4761083;29;20186;-89
2021/03/13 03:20:26;;;;;;;1999.90;999.90;;;6.90;99.90;;;;;;4804298;29;20183;-90
2021/03/13 03:23:41;;;;;;;1999.90;999.90;;;7.00;99.90;;;;;;4810004;29;20190;-91
2021/03/13 03:26:49;;;;;;;1999.90;999.90;;;7.00;99.90;;;;;;4838804;29;20217;-90
2021/03/13 04:22:14;;;;;;;1999.90;999.90;;;7.40;99.90;;;;;;4536016;27;20218;-87
2021/03/13 04:25:22;;;;;;;1999.90;999.90;;;7.40;99.90;;;;;;4862547;29;20571;-87
2021/03/13 04:27:50;;;;;;;1999.90;999.90;;;7.40;99.90;;;;;;4789458;29;20217;-87
2021/03/13 04:30:29;;;;;;;1999.90;999.90;;;7.40;99.90;;;;;;4803942;29;20275;-87
2021/03/13 04:33:00;;;;;;;1999.90;999.90;;;7.30;99.90;;;;;;4859735;29;20187;-88
2021/03/13 04:35:28;;;;;;;1999.90;999.90;;;7.40;99.90;;;;;;4858869;29;20588;-88
2021/03/13 04:38:37;;;;;;;;;;;;;;;;;;;;;
2021/03/13 04:41:18;;;;;;;;;;;;;;;;;;;;;
2021/03/13 04:44:01;;;;;;;1999.90;999.90;;;7.40;99.90;;;;;;4859993;29;20190;-88
2021/03/13 04:47:03;;;;;;;1999.90;999.90;;;7.40;99.90;;;;;;4860158;29;20675;-88
2021/03/13 04:50:01;;;;;;;1999.90;999.90;;;7.40;99.90;;;;;;4870951;29;20546;-87
2021/03/13 04:52:30;;;;;;;1999.90;999.90;;;7.40;99.90;;;;;;4858385;29;20620;-88
2021/03/13 04:58:02;;;;;;;1999.90;999.90;;;7.40;99.90;;;;;;4894080;23;20772;-88
2021/03/13 05:07:07;;;;;;;;;;;;;;;;;;;;;
2021/03/13 05:09:52;;;;;;;1999.90;999.90;;;7.60;99.90;;;;;;4858280;29;20533;-87
2021/03/13 05:12:54;;;;;;;1999.90;999.90;;;7.60;99.90;;;;;;4859925;29;20664;-87
2021/03/13 05:15:54;;;;;;;1999.90;999.90;;;7.60;99.90;;;;;;4839748;29;20220;-87
2021/03/13 05:19:03;;;;;;;1999.90;999.90;;;7.70;99.90;;;;;;4840175;29;20605;-88
2021/03/13 05:22:07;;;;;;;1999.90;999.90;;;7.70;99.90;;;;;;4841129;29;20501;-88
2021/03/13 05:28:13;;;;;;;1999.90;999.90;;;7.70;99.90;;;;;;4803519;29;20241;-88
2021/03/13 05:30:59;;;;;;;1999.90;999.90;;;7.70;99.90;;;;;;4803848;29;20522;-88
2021/03/13 05:50:30;;;;;;;1999.90;999.90;;;7.90;99.90;;;;;;4859788;29;20178;-88
2021/03/13 05:57:14;;;;;;;;;;;;;;;;;;;;;
2021/03/13 06:00:20;;;;;;;1999.90;999.90;;;8.00;99.90;;;;;;4844001;29;20320;-88
2021/03/13 06:03:52;;;;;;;;;;;;;;;;;;;;;
2021/03/13 08:35:49;;;;;;;1999.90;999.90;;;7.50;99.90;;;;;;5879355;23;20974;-80
2021/03/13 08:38:18;;;;;;;1999.90;999.90;;;7.60;99.90;;;;;;4881703;29;20239;-80
2021/03/13 08:40:49;;;;;;;1999.90;999.90;;;7.60;99.90;;;;;;4881503;29;20166;-80
2021/03/13 08:43:39;;;;;;;1999.90;999.90;;;7.60;99.90;;;;;;4881561;29;20273;-82
2021/03/13 08:46:44;;;;;;;1999.90;999.90;;;7.60;99.90;;;;;;4880397;29;20163;-80
2021/03/13 08:49:27;;;;;;;1999.90;999.90;;;7.70;99.90;;;;;;4881396;29;20143;-80
2021/03/13 08:52:10;;;;;;;1999.90;999.90;;;7.80;99.90;;;;;;4881606;29;20250;-80
2021/03/13 08:54:41;;;;;;;1999.90;999.90;;;7.80;99.90;;;;;;4880111;29;20210;-80
2021/03/13 08:57:19;;;;;;;1999.90;999.90;;;7.90;99.90;;;;;;4881517;29;20179;-80
2021/03/13 08:59:57;;;;;;;1999.90;999.90;;;8.00;99.90;;;;;;4881269;29;20178;-80
2021/03/13 09:02:36;;;;;;;1999.90;999.90;;;8.00;99.90;;;;;;4881825;29;20177;-81
2021/03/13 09:05:33;;;;;;;1999.90;999.90;;;8.10;99.90;;;;;;4881651;29;20194;-81
2021/03/13 09:07:59;;;;;;;1999.90;999.90;;;8.30;99.90;;;;;;4874064;29;20238;-81
2021/03/13 09:10:25;;;;;;;1999.90;999.90;;;8.30;99.90;;;;;;4881264;29;20170;-81
2021/03/13 09:12:51;;;;;;;1999.90;999.90;;;8.30;99.90;;;;;;4881039;29;20651;-81
2021/03/13 09:15:17;;;;;;;1999.90;999.90;;;8.40;99.90;;;;;;4881070;29;20613;-81
2021/03/13 09:17:43;;;;;;;1999.90;999.90;;;8.30;99.90;;;;;;4881299;29;20171;-81
2021/03/13 09:20:14;;;;;;;1999.90;999.90;;;8.40;99.90;;;;;;4881240;29;20175;-81
2021/03/13 09:22:42;;;;;;;1999.90;999.90;;;8.40;99.90;;;;;;4884490;29;20218;-81
2021/03/13 09:25:17;;;;;;;1999.90;999.90;;;8.50;99.90;;;;;;4885031;29;20623;-81
2021/03/13 09:27:43;;;;;;;1999.90;999.90;;;8.50;99.90;;;;;;4884788;29;20280;-81
2021/03/13 09:30:23;;;;;;;1999.90;999.90;;;8.50;99.90;;;;;;4884291;29;20309;-81
2021/03/13 09:32:51;;;;;;;1999.90;999.90;;;8.50;99.90;;;;;;4884326;29;20414;-81
2021/03/13 09:35:22;;;;;;;1999.90;999.90;;;8.60;99.90;;;;;;4884840;29;20197;-81
2021/03/13 09:37:48;;;;;;;1999.90;999.90;;;8.50;99.90;;;;;;4884664;29;20559;-81
2021/03/13 09:40:21;;;;;;;1999.90;999.90;;;8.50;99.90;;;;;;4882983;29;20175;-81
2021/03/13 09:42:48;;;;;;;1999.90;999.90;;;8.30;99.90;;;;;;4884474;29;20151;-81
2021/03/13 09:45:19;;;;;;;1999.90;999.90;;;8.30;99.90;;;;;;4884708;29;20171;-83
2021/03/13 09:47:56;;;;;;;1999.90;999.90;;;8.30;99.90;;;;;;4884507;29;20171;-81
2021/03/13 09:50:27;;;;;;;1999.90;999.90;;;8.40;99.90;;;;;;4884825;29;20678;-81
2021/03/13 09:52:53;;;;;;;1999.90;999.90;;;8.40;99.90;;;;;;4883830;29;20173;-81
2021/03/13 09:55:21;;;;;;;1999.90;999.90;;;8.50;99.90;;;;;;4883716;29;20273;-81
2021/03/13 09:57:50;;;;;;;1999.90;999.90;;;8.50;99.90;;;;;;4884340;29;20177;-81
2021/03/13 10:00:26;;;;;;;1999.90;999.90;;;8.60;99.90;;;;;;4883828;29;20193;-80
2021/03/13 10:02:53;;;;;;;1999.90;999.90;;;8.70;99.90;;;;;;4884751;29;20155;-81
2021/03/13 10:05:21;;;;;;;1999.90;999.90;;;8.70;99.90;;;;;;4882108;29;20174;-81
2021/03/13 10:07:50;;;;;;;1999.90;999.90;;;8.80;99.90;;;;;;4883598;29;20191;-81
2021/03/13 10:10:21;;;;;;;1999.90;999.90;;;8.80;99.90;;;;;;4883015;29;20175;-81
2021/03/13 10:12:52;;;;;;;1999.90;999.90;;;8.80;99.90;;;;;;4883707;29;20163;-80
2021/03/13 10:15:30;;;;;;;1999.90;999.90;;;8.80;99.90;;;;;;4883960;29;20232;-80
2021/03/13 10:18:06;;;;;;;1999.90;999.90;;;8.80;99.90;;;;;;4883853;29;20560;-81
2021/03/13 10:20:35;;;;;;;1999.90;999.90;;;8.70;99.90;;;;;;4884005;29;20154;-81
2021/03/13 10:23:31;;;;;;;1999.90;999.90;;;8.70;99.90;;;;;;4883548;29;20206;-80
2021/03/13 10:26:03;;;;;;;1999.90;999.90;;;8.70;99.90;;;;;;4883962;29;20258;-81
2021/03/13 10:28:36;;;;;;;1999.90;999.90;;;8.80;99.90;;;;;;4883696;29;20166;-81
2021/03/13 10:31:11;;;;;;;1999.90;999.90;;;9.10;99.90;;;;;;4883827;29;20245;-80
2021/03/13 10:33:41;;;;;;;1999.90;999.90;;;9.10;99.90;;;;;;4882194;29;20190;-80
2021/03/13 10:36:07;;;;;;;1999.90;999.90;;;9.40;99.90;;;;;;4883295;29;20202;-81
2021/03/13 10:38:44;;;;;;;1999.90;999.90;;;9.70;99.90;;;;;;4884060;29;20254;-80
2021/03/13 10:41:15;;;;;;;1999.90;999.90;;;9.90;99.90;;;;;;4883925;29;20226;-80
2021/03/13 10:43:43;;;;;;;1999.90;999.90;;;10.00;99.90;;;;;;4884401;29;20277;-80
2021/03/13 10:46:13;;;;;;;1999.90;999.90;;;9.90;99.90;;;;;;4885535;29;20237;-80
2021/03/13 10:48:51;;;;;;;1999.90;999.90;;;9.90;99.90;;;;;;4889081;29;20171;-80
2021/03/13 10:51:36;;;;;;;1999.90;999.90;;;9.70;99.90;;;;;;4888745;29;20174;-79
2021/03/13 10:54:04;;;;;;;1999.90;999.90;;;9.90;99.90;;;;;;4883288;29;20535;-80
2021/03/13 10:56:43;;;;;;;1999.90;999.90;;;10.20;99.90;;;;;;4883675;29;20219;-80
2021/03/13 10:59:10;;;;;;;1999.90;999.90;;;10.40;99.90;;;;;;4883987;29;20215;-81
2021/03/13 11:01:36;;;;;;;1999.90;999.90;;;10.40;99.90;;;;;;4883289;29;20167;-81
2021/03/13 11:04:02;;;;;;;1999.90;999.90;;;10.40;99.90;;;;;;4882446;29;20210;-80
2021/03/13 11:06:35;;;;;;;1999.90;999.90;;;10.40;99.90;;;;;;4883304;29;20179;-80
2021/03/13 11:09:11;;;;;;;1999.90;999.90;;;10.40;99.90;;;;;;4881715;29;20175;-80
2021/03/13 11:11:39;;;;;;;1999.90;999.90;;;10.30;99.90;;;;;;4883113;29;20178;-80
2021/03/13 11:14:09;;;;;;;1999.90;999.90;;;10.20;99.90;;;;;;4882898;29;20214;-80
2021/03/13 11:16:38;;;;;;;1999.90;999.90;;;10.10;99.90;;;;;;4883437;29;20178;-80
2021/03/13 11:19:04;;;;;;;1999.90;999.90;;;9.90;99.90;;;;;;4882855;29;20725;-80
2021/03/13 11:21:30;;;;;;;1999.90;999.90;;;9.80;99.90;;;;;;4882847;29;20174;-81
2021/03/13 11:23:56;;;;;;;1999.90;999.90;;;9.90;99.90;;;;;;4882127;29;20246;-80
2021/03/13 11:26:23;;;;;;;1999.90;999.90;;;10.00;99.90;;;;;;4882539;29;20166;-80
2021/03/13 11:28:50;;;;;;;1999.90;999.90;;;10.00;99.90;;;;;;4882857;29;20174;-80
2021/03/13 11:31:15;;;;;;;1999.90;999.90;;;10.10;99.90;;;;;;4883207;29;20262;-80
2021/03/13 11:33:42;;;;;;;1999.90;999.90;;;10.10;99.90;;;;;;4881516;29;20306;-80
2021/03/13 11:36:09;;;;;;;1999.90;999.90;;;10.20;99.90;;;;;;4882704;29;20206;-80
2021/03/13 11:38:35;;;;;;;1999.90;999.90;;;10.10;99.90;;;;;;4882218;29;20171;-80
2021/03/13 11:41:04;;;;;;;1999.90;999.90;;;10.10;99.90;;;;;;4882372;29;20167;-80
2021/03/13 11:43:31;;;;;;;1999.90;999.90;;;10.20;99.90;;;;;;4882255;29;20726;-80
2021/03/13 11:45:57;;;;;;;1999.90;999.90;;;10.20;99.90;;;;;;4882180;29;20178;-80
2021/03/13 11:48:23;;;;;;;1999.90;999.90;;;10.60;99.90;;;;;;4883179;29;20615;-80
2021/03/13 11:50:49;;;;;;;1999.90;999.90;;;10.90;96.90;;;;;;4882611;29;20407;-80
2021/03/13 11:53:15;;;;;;;1999.90;999.90;;;10.90;93.90;;;;;;4883002;29;20195;-81
2021/03/13 11:55:40;;;;;;;1999.90;999.90;;;10.70;95.20;;;;;;4882484;29;20242;-80
2021/03/13 11:58:06;;;;;;;1999.90;999.90;;;10.60;95.70;;;;;;4881717;29;20238;-80
2021/03/13 12:00:32;;;;;;;1999.90;999.90;;;10.30;99.90;;;;;;4882458;29;20175;-81
2021/03/13 12:02:58;;;;;;;1999.90;999.90;;;10.10;99.90;;;;;;4882253;29;20238;-80
2021/03/13 12:05:23;;;;;;;1999.90;999.90;;;9.90;99.90;;;;;;4881907;29;20170;-81
2021/03/13 12:07:49;;;;;;;1999.90;999.90;;;9.90;99.90;;;;;;4882153;29;20512;-80
2021/03/13 12:10:15;;;;;;;1999.90;999.90;;;9.80;99.90;;;;;;4882443;29;20177;-81
2021/03/13 12:12:41;;;;;;;1999.90;999.90;;;9.80;99.90;;;;;;4881336;29;20163;-81
2021/03/13 12:15:08;;;;;;;1999.90;999.90;;;9.80;99.90;;;;;;4882060;29;20206;-80
2021/03/13 12:17:35;;;;;;;1999.90;999.90;;;9.70;99.90;;;;;;4882754;29;20615;-80
2021/03/13 12:20:01;;;;;;;1999.90;999.90;;;9.80;99.90;;;;;;4881812;29;20178;-81
2021/03/13 12:22:27;;;;;;;1999.90;999.90;;;9.90;99.90;;;;;;4882157;29;20177;-81
2021/03/13 12:24:53;;;;;;;1999.90;999.90;;;9.90;99.90;;;;;;4881480;29;20203;-80
2021/03/13 12:27:19;;;;;;;1999.90;999.90;;;10.00;99.90;;;;;;4881875;29;20661;-81
2021/03/13 12:29:45;;;;;;;1999.90;999.90;;;10.30;99.90;;;;;;4880724;29;20178;-81
2021/03/13 12:32:11;;;;;;;1999.90;999.90;;;10.70;99.90;;;;;;4881845;29;20174;-80
2021/03/13 12:34:36;;;;;;;1999.90;999.90;;;10.90;99.90;;;;;;4881426;29;20896;-80
2021/03/13 12:37:02;;;;;;;1999.90;999.90;;;11.10;99.90;;;;;;4881940;29;20186;-80
2021/03/13 12:39:28;;;;;;;1999.90;999.90;;;11.10;99.90;;;;;;4881057;29;20296;-81
2021/03/13 12:41:54;;;;;;;1999.90;999.90;;;11.00;99.90;;;;;;4881764;29;20171;-80
2021/03/13 12:44:19;;;;;;;1999.90;999.90;;;10.90;96.70;;;;;;4882079;29;20277;-80
2021/03/13 12:46:45;;;;;;;1999.90;999.90;;;10.80;95.80;;;;;;4882806;29;20202;-80
2021/03/13 12:49:11;;;;;;;1999.90;999.90;;;10.60;90.50;;;;;;4880894;29;20170;-80
2021/03/13 12:51:37;;;;;;;1999.90;999.90;;;10.50;95.50;;;;;;4882164;29;20835;-80
2021/03/13 12:54:04;;;;;;;1999.90;999.90;;;10.40;94.00;;;;;;4880864;29;20568;-81
2021/03/13 12:56:29;;;;;;;1999.90;999.90;;;10.40;99.30;;;;;;4882906;29;20190;-81
2021/03/13 12:58:55;;;;;;;1999.90;999.90;;;10.50;99.60;;;;;;4885592;29;20531;-80
2021/03/13 13:01:21;;;;;;;1999.90;999.90;;;10.70;99.90;;;;;;4885336;29;20163;-80
2021/03/13 13:03:57;;;;;;;1999.90;999.90;;;11.10;99.90;;;;;;4885130;29;20265;-80
2021/03/13 13:06:26;;;;;;;1999.90;999.90;;;11.50;99.90;;;;;;4885174;29;20245;-80
2021/03/13 13:08:55;;;;;;;1999.90;999.90;;;11.70;99.90;;;;;;4885314;29;20177;-80
2021/03/13 13:11:24;;;;;;;1999.90;999.90;;;11.70;95.60;;;;;;4885612;29;20166;-81
2021/03/13 13:13:52;;;;;;;1999.90;999.90;;;11.50;99.30;;;;;;4885764;29;20232;-80
2021/03/13 13:16:17;;;;;;;1999.90;999.90;;;11.20;99.60;;;;;;4885493;29;20206;-81
2021/03/13 13:18:44;;;;;;;1999.90;999.90;;;11.00;99.90;;;;;;4885520;29;20170;-80
2021/03/13 13:21:11;;;;;;;1999.90;999.90;;;11.00;99.90;;;;;;4884933;29;20559;-80
2021/03/13 13:23:36;;;;;;;1999.90;999.90;;;11.10;99.90;;;;;;4885249;29;20187;-81
2021/03/13 13:26:02;;;;;;;1999.90;999.90;;;11.40;99.90;;;;;;4886199;29;20249;-81
2021/03/13 13:28:28;;;;;;;1999.90;999.90;;;11.50;99.90;;;;;;4885595;29;20642;-81
2021/03/13 13:30:54;;;;;;;1999.90;999.90;;;11.60;96.60;;;;;;4885689;29;20178;-80
2021/03/13 13:33:20;;;;;;;1999.90;999.90;;;11.50;90.10;;;;;;4884881;29;20603;-80
2021/03/13 13:35:47;;;;;;;1999.90;999.90;;;11.50;89.80;;;;;;4885015;29;20469;-79
2021/03/13 13:38:14;;;;;;;1999.90;999.90;;;11.50;93.40;;;;;;4883743;29;20427;-79
2021/03/13 13:40:40;;;;;;;1999.90;999.90;;;11.40;94.40;;;;;;4885233;29;20171;-80
2021/03/13 13:43:06;;;;;;;1999.90;999.90;;;11.40;84.90;;;;;;4884990;29;20230;-80
2021/03/13 13:45:32;;;;;;;1999.90;999.90;;;11.20;92.10;;;;;;4884813;29;20562;-79
2021/03/13 13:47:59;;;;;;;1999.90;999.90;;;11.10;91.20;;;;;;4885634;29;20222;-80
2021/03/13 13:50:28;;;;;;;1999.90;999.90;;;10.90;91.10;;;;;;4884915;29;20261;-80
2021/03/13 13:52:54;;;;;;;1999.90;999.90;;;10.70;94.00;;;;;;4885507;29;20177;-80
2021/03/13 13:55:19;;;;;;;1999.90;999.90;;;10.50;99.90;;;;;;4885108;29;20285;-79
2021/03/13 13:57:46;;;;;;;1999.90;999.90;;;10.40;99.90;;;;;;4885454;29;20175;-79
2021/03/13 14:00:15;;;;;;;1999.90;999.90;;;10.30;99.90;;;;;;4883660;29;20177;-79
2021/03/13 14:02:41;;;;;;;1999.90;999.90;;;10.30;99.90;;;;;;4885361;29;20171;-79
2021/03/13 14:05:08;;;;;;;1999.90;999.90;;;10.30;99.90;;;;;;4884910;29;20222;-79
2021/03/13 14:07:36;;;;;;;1999.90;999.90;;;10.40;99.90;;;;;;4884489;29;20173;-79
2021/03/13 14:10:02;;;;;;;1999.90;999.90;;;10.40;97.50;;;;;;4885122;29;20175;-79
2021/03/13 14:12:28;;;;;;;1999.90;999.90;;;10.40;96.30;;;;;;4884715;29;20170;-79
2021/03/13 14:14:53;;;;;;;1999.90;999.90;;;10.50;99.00;;;;;;4884734;29;20203;-79
2021/03/13 14:17:19;;;;;;;1999.90;999.90;;;10.50;94.80;;;;;;4884754;29;20647;-79
2021/03/13 14:19:44;;;;;;;1999.90;999.90;;;10.60;99.90;;;;;;4884656;29;20167;-79
2021/03/13 14:22:10;;;;;;;1999.90;999.90;;;10.80;94.60;;;;;;4884651;29;20175;-79
2021/03/13 14:24:36;;;;;;;1999.90;999.90;;;10.90;97.10;;;;;;4884552;29;20535;-79
2021/03/13 14:27:02;;;;;;;1999.90;999.90;;;10.90;84.70;;;;;;4885071;29;20171;-79
2021/03/13 14:29:32;;;;;;;1999.90;999.90;;;10.80;92.10;;;;;;4884438;29;20639;-80
2021/03/13 14:31:58;;;;;;;1999.90;999.90;;;10.80;88.60;;;;;;4884831;29;20235;-79
2021/03/13 14:34:24;;;;;;;1999.90;999.90;;;10.80;90.40;;;;;;4884402;29;20211;-80
2021/03/13 14:36:53;;;;;;;1999.90;999.90;;;10.90;93.30;;;;;;5014102;23;20227;-89
2021/03/13 14:39:38;;;;;;;1999.90;999.90;;;11.10;90.30;;;;;;4879906;29;20427;-91
2021/03/13 14:42:27;;;;;;;1999.90;999.90;;;11.30;91.10;;;;;;4881317;29;20193;-90
2021/03/13 14:48:06;;;;;;;1999.90;999.90;;;11.60;68.20;;;;;;4823528;29;20313;-89
2021/03/13 14:50:41;;;;;;;1999.90;999.90;;;11.50;76.30;;;;;;4877467;29;20189;-90
2021/03/13 14:53:22;;;;;;;1999.90;999.90;;;11.50;75.70;;;;;;4880012;29;20229;-89
2021/03/13 14:56:17;;;;;;;1999.90;999.90;;;11.40;66.90;;;;;;4881154;29;20190;-89
2021/03/13 14:58:48;;;;;;;1999.90;999.90;;;11.40;69.10;;;;;;4854205;29;20176;-89
2021/03/13 15:01:35;;;;;;;1999.90;999.90;;;11.20;44.30;;;;;;4876098;29;20193;-89
2021/03/13 15:04:37;;;;;;;;;;;;;;;;;;;;;
2021/03/13 15:07:28;;;;;;;1999.90;999.90;;;11.10;42.80;;;;;;4866290;29;20205;-92
2021/03/13 15:09:57;;;;;;;1999.90;999.90;;;11.00;42.80;;;;;;4880763;29;20200;-87
2021/03/13 15:12:25;;;;;;;1999.90;999.90;;;11.00;45.20;;;;;;4881175;29;20167;-92
2021/03/13 15:15:03;;;;;;;1999.90;999.90;;;10.90;38.70;;;;;;4875797;29;20215;-92
2021/03/13 15:18:09;;;;;;;1999.90;999.90;;;11.00;42.60;;;;;;4879255;29;20270;-92
2021/03/13 15:20:34;;;;;;;1999.90;999.90;;;11.00;45.70;;;;;;4878733;29;20174;-90
2021/03/13 15:25:54;;;;;;;1999.90;999.90;;;11.30;33.50;;;;;;4095542;27;20622;-89
2021/03/13 15:28:35;;;;;;;1999.90;999.90;;;11.50;27.60;;;;;;4860816;29;20210;-90
2021/03/13 15:31:23;;;;;;;1999.90;999.90;;;11.40;26.60;;;;;;4861956;29;20250;-90
2021/03/13 15:34:22;;;;;;;1999.90;999.90;;;11.30;29.90;;;;;;4862059;29;20191;-91
2021/03/13 15:36:50;;;;;;;1999.90;999.90;;;11.20;32.80;;;;;;4861727;29;20214;-89
2021/03/13 15:45:53;;;;;;;1999.90;999.90;;;11.30;36.60;;;;;;5683308;23;20253;-92
2021/03/13 15:48:49;;;;;;;;;;;;;;;;;;;;;
2021/03/13 15:51:27;;;;;;;1999.90;999.90;;;11.30;33.30;;;;;;4880516;29;20182;-90
2021/03/13 15:53:58;;;;;;;1999.90;999.90;;;11.30;32.10;;;;;;4878755;29;20757;-88
2021/03/13 15:56:26;;;;;;;1999.90;999.90;;;11.10;25.50;;;;;;4879908;29;20376;-88
2021/03/13 15:59:07;;;;;;;1999.90;999.90;;;10.90;27.50;;;;;;4880463;29;20194;-89
2021/03/13 16:01:48;;;;;;;1999.90;999.90;;;10.80;29.90;;;;;;4880193;29;20151;-91
2021/03/13 16:04:30;;;;;;;;;;;;;;;;;;;;;
2021/03/13 16:06:56;;;;;;;1999.90;999.90;;;10.60;34.30;;;;;;4879764;29;20170;-88
2021/03/13 16:09:57;;;;;;;1999.90;999.90;;;10.40;37.20;;;;;;4881204;29;20249;-87
2021/03/13 16:12:23;;;;;;;1999.90;999.90;;;10.40;45.80;;;;;;4880569;29;20269;-88
2021/03/13 16:14:49;;;;;;;1999.90;999.90;;;10.30;48.60;;;;;;4881093;29;20272;-87
2021/03/13 16:17:14;;;;;;;1999.90;999.90;;;10.20;47.90;;;;;;4884492;29;20415;-89
2021/03/13 16:20:26;;;;;;;1999.90;999.90;;;10.10;50.80;;;;;;4878760;29;20411;-88
2021/03/13 16:27:08;;;;;;;1999.90;999.90;;;10.30;48.50;;;;;;4804875;29;20185;-89
2021/03/13 16:30:22;;;;;;;1999.90;999.90;;;10.60;41.40;;;;;;4807443;29;20189;-87
2021/03/13 16:33:49;;;;;;;1999.90;999.90;;;10.70;35.60;;;;;;4781027;29;20677;-87
2021/03/13 16:36:43;;;;;;;1999.90;999.90;;;10.60;26.10;;;;;;4786336;29;20240;-87
2021/03/13 16:44:11;;;;;;;1999.90;999.90;;;10.30;20.10;;;;;;4794518;29;20213;-86
2021/03/13 16:57:53;;;;;;;1999.90;999.90;;;9.80;61.50;;;;;;4804759;29;20190;-86
2021/03/13 17:04:01;;;;;;;1999.90;999.90;;;9.70;82.50;;;;;;4839807;29;20324;-88
2021/03/13 17:07:25;;;;;;;1999.90;999.90;;;9.60;89.20;;;;;;4843162;29;20171;-85
2021/03/13 17:10:29;;;;;;;1999.90;999.90;;;9.40;93.20;;;;;;4790971;29;20563;-87
2021/03/13 17:13:34;;;;;;;;;;;;;;;;;;;;;
2021/03/13 17:23:34;;;;;;;1999.90;999.90;;;9.20;95.80;;;;;;4804300;29;20784;-86
2021/03/13 17:26:49;;;;;;;;;;;;;;;;;;;;;
2021/03/13 17:29:15;;;;;;;1999.90;999.90;;;9.10;95.90;;;;;;4785779;29;20178;-87
2021/03/13 17:38:53;;;;;;;1999.90;999.90;;;9.00;96.70;;;;;;4816355;29;20221;-86
2021/03/13 17:42:10;;;;;;;;;;;;;;;;;;;;;
2021/03/13 17:45:33;;;;;;;1999.90;999.90;;;8.90;97.60;;;;;;4827777;29;20199;-86
2021/03/13 17:48:20;;;;;;;1999.90;999.90;;;8.80;98.00;;;;;;4820490;29;20654;-86
2021/03/13 17:51:41;;;;;;;;;;;;;;;;;;;;;
2021/03/13 17:55:26;;;;;;;;;;;;;;;;;;;;;
2021/03/13 17:58:28;;;;;;;1999.90;999.90;;;8.70;99.70;;;;;;4769971;30;20751;-86
2021/03/13 18:05:27;;;;;;;;;;;;;;;;;;;;;
2021/03/13 18:11:18;;;;;;;1999.90;999.90;;;8.60;99.90;;;;;;4862964;29;20206;-87
2021/03/13 18:13:46;;;;;;;1999.90;999.90;;;8.60;99.90;;;;;;4876846;29;20209;-87
2021/03/13 18:16:15;;;;;;;1999.90;999.90;;;8.60;99.90;;;;;;4890001;29;20195;-86
2021/03/13 18:18:43;;;;;;;1999.90;999.90;;;8.60;99.90;;;;;;4890789;29;20245;-86
2021/03/13 18:21:17;;;;;;;1999.90;999.90;;;8.60;99.90;;;;;;4885984;29;20167;-87
2021/03/13 18:23:51;;;;;;;1999.90;999.90;;;8.60;99.90;;;;;;4885522;29;20266;-87
2021/03/13 18:26:19;;;;;;;1999.90;999.90;;;8.50;99.90;;;;;;4885149;29;20169;-87
2021/03/13 18:28:47;;;;;;;1999.90;999.90;;;8.50;99.90;;;;;;4886130;29;20635;-87
2021/03/13 18:31:13;;;;;;;1999.90;999.90;;;8.50;99.90;;;;;;4884419;29;20196;-87
2021/03/13 18:33:51;;;;;;;;;;;;;;;;;;;;;